Time;durP1;ratioP1;P1;durP2;ratioP2;P2;SDS_P1;SDS_P2;PMS_P1;PMS_P2;Temp;Humidity;BMP_temperature;BMP_pressure;BME280_temperature;BME280_humidity;BME280_pressure;Samples;Min_cycle;Max_cycle;Signal;HPM_P1;HPM_P2
2023/05/24 00:02:06;;;;;;;14.43;3.55;;;;;;;;;;4993263;28;20035;-57
2023/05/24 00:04:32;;;;;;;12.07;2.63;;;;;;;;;;4992346;28;20041;-57
2023/05/24 00:07:02;;;;;;;9.40;2.28;;;;;;;;;;4994401;28;20026;-55
2023/05/24 00:09:28;;;;;;;8.40;2.40;;;;;;;;;;4992719;28;20501;-57
2023/05/24 00:11:53;;;;;;;8.75;2.80;;;;;;;;;;4993117;28;20030;-57
2023/05/24 00:14:19;;;;;;;12.52;2.60;;;;;;;;;;4994280;28;20117;-55
2023/05/24 00:16:45;;;;;;;9.95;2.58;;;;;;;;;;4992894;28;20046;-57
2023/05/24 00:19:10;;;;;;;8.57;2.20;;;;;;;;;;4993014;28;20042;-57
2023/05/24 00:21:36;;;;;;;14.38;2.50;;;;;;;;;;4992393;28;20034;-57
2023/05/24 00:24:01;;;;;;;8.05;2.53;;;;;;;;;;4992144;28;20034;-57
2023/05/24 00:26:26;;;;;;;10.45;2.70;;;;;;;;;;4992901;28;20053;-57
2023/05/24 00:28:52;;;;;;;13.15;2.90;;;;;;;;;;4989079;28;20045;-58
2023/05/24 00:31:17;;;;;;;12.75;2.90;;;;;;;;;;4981104;28;20372;-57
2023/05/24 00:33:43;;;;;;;11.40;2.60;;;;;;;;;;4984764;28;20062;-57
2023/05/24 00:36:08;;;;;;;8.93;2.78;;;;;;;;;;4983316;28;20045;-55
2023/05/24 00:38:33;;;;;;;12.05;2.72;;;;;;;;;;4993158;28;20034;-57
2023/05/24 00:41:00;;;;;;;13.57;2.85;;;;;;;;;;4992564;28;20501;-57
2023/05/24 00:43:25;;;;;;;11.30;3.00;;;;;;;;;;4992975;28;20475;-55
2023/05/24 00:46:13;;;;;;;15.27;2.50;;;;;;;;;;4990707;28;20112;-55
2023/05/24 00:48:38;;;;;;;10.50;2.72;;;;;;;;;;4992659;28;20092;-57
2023/05/24 00:51:04;;;;;;;14.60;2.83;;;;;;;;;;4992778;28;20042;-58
2023/05/24 00:53:30;;;;;;;17.55;3.05;;;;;;;;;;4992934;28;20113;-54
2023/05/24 00:55:56;;;;;;;12.60;3.05;;;;;;;;;;4986827;28;20030;-58
2023/05/24 00:58:25;;;;;;;11.77;2.70;;;;;;;;;;4977513;28;20504;-58
2023/05/24 01:00:56;;;;;;;11.80;2.50;;;;;;;;;;4992430;28;20034;-58
2023/05/24 01:03:22;;;;;;;8.35;2.75;;;;;;;;;;4991079;28;20038;-55
2023/05/24 01:05:47;;;;;;;12.02;2.80;;;;;;;;;;4992589;28;20034;-60
2023/05/24 01:08:41;;;;;;;14.45;2.58;;;;;;;;;;4983034;28;20112;-56
2023/05/24 01:11:26;;;;;;;9.57;2.75;;;;;;;;;;4989542;28;20117;-58
2023/05/24 01:14:33;;;;;;;12.55;2.97;;;;;;;;;;4990192;28;20121;-58
2023/05/24 01:17:13;;;;;;;13.25;2.78;;;;;;;;;;4990289;28;20035;-59
2023/05/24 01:19:53;;;;;;;12.05;3.10;;;;;;;;;;4988087;28;20129;-58
2023/05/24 01:22:55;;;;;;;10.95;2.65;;;;;;;;;;4992893;28;20383;-55
2023/05/24 01:25:45;;;;;;;10.63;2.85;;;;;;;;;;4989565;28;20045;-59
2023/05/24 01:28:11;;;;;;;14.02;3.80;;;;;;;;;;4991533;28;20070;-58
2023/05/24 01:30:40;;;;;;;13.35;3.00;;;;;;;;;;4991897;28;20034;-58
2023/05/24 01:33:05;;;;;;;12.73;3.40;;;;;;;;;;4990505;28;20422;-56
2023/05/24 01:35:33;;;;;;;12.02;3.30;;;;;;;;;;4992763;28;20040;-54
2023/05/24 01:37:58;;;;;;;7.85;2.90;;;;;;;;;;4990951;28;20491;-59
2023/05/24 01:40:23;;;;;;;12.27;3.00;;;;;;;;;;4993347;28;20514;-56
2023/05/24 01:43:06;;;;;;;8.77;2.92;;;;;;;;;;4993486;28;20030;-56
2023/05/24 01:46:00;;;;;;;9.15;2.75;;;;;;;;;;4988405;28;20438;-55
2023/05/24 01:48:31;;;;;;;12.40;3.22;;;;;;;;;;4991357;28;20482;-58
2023/05/24 01:50:57;;;;;;;;;;;;;;;;;;4987692;28;20058;-59
2023/05/24 01:53:25;;;;;;;13.52;2.97;;;;;;;;;;4987699;28;19917;-57
2023/05/24 01:55:55;;;;;;;14.10;3.20;;;;;;;;;;4992010;28;20117;-58
2023/05/24 01:58:22;;;;;;;10.70;3.42;;;;;;;;;;4991385;28;20042;-57
2023/05/24 02:00:48;;;;;;;10.60;2.88;;;;;;;;;;4992048;28;20085;-57
2023/05/24 02:03:14;;;;;;;10.50;3.22;;;;;;;;;;4992376;28;20482;-56
2023/05/24 02:05:40;;;;;;;11.10;3.10;;;;;;;;;;4992013;28;20042;-57
2023/05/24 02:08:05;;;;;;;8.02;2.58;;;;;;;;;;4987588;28;20046;-56
2023/05/24 02:10:31;;;;;;;12.38;3.30;;;;;;;;;;4991909;28;20034;-55
2023/05/24 02:12:58;;;;;;;12.10;2.92;;;;;;;;;;4992251;28;20026;-58
2023/05/24 02:15:25;;;;;;;11.18;3.30;;;;;;;;;;4990219;28;20471;-55
2023/05/24 02:17:53;;;;;;;10.25;3.30;;;;;;;;;;4992876;28;20038;-54
2023/05/24 02:20:21;;;;;;;9.82;3.38;;;;;;;;;;4988040;28;20068;-56
2023/05/24 02:22:49;;;;;;;11.70;3.05;;;;;;;;;;4992382;28;20030;-52
2023/05/24 02:25:15;;;;;;;12.32;3.05;;;;;;;;;;4990621;28;20042;-57
2023/05/24 02:27:40;;;;;;;14.63;3.72;;;;;;;;;;4992543;28;20072;-57
2023/05/24 02:30:07;;;;;;;12.73;3.33;;;;;;;;;;4988567;28;20108;-56
2023/05/24 02:32:33;;;;;;;12.13;2.92;;;;;;;;;;4985113;28;20038;-54
2023/05/24 02:35:00;;;;;;;11.25;3.55;;;;;;;;;;4984457;28;20034;-59
2023/05/24 02:37:26;;;;;;;12.05;3.67;;;;;;;;;;4991391;28;20038;-58
2023/05/24 02:39:52;;;;;;;15.45;4.13;;;;;;;;;;4990875;28;20038;-55
2023/05/24 02:42:17;;;;;;;15.10;3.97;;;;;;;;;;4989214;28;20101;-56
2023/05/24 02:44:46;;;;;;;13.88;3.55;;;;;;;;;;4989670;28;20038;-57
2023/05/24 02:47:14;;;;;;;16.90;4.10;;;;;;;;;;4990015;28;20419;-53
2023/05/24 02:49:39;;;;;;;18.98;4.05;;;;;;;;;;4990912;28;20026;-57
2023/05/24 02:52:05;;;;;;;17.65;4.57;;;;;;;;;;4988626;28;20038;-54
2023/05/24 02:54:31;;;;;;;12.52;4.38;;;;;;;;;;4989706;28;20034;-56
2023/05/24 02:56:56;;;;;;;20.15;4.30;;;;;;;;;;4991740;28;20114;-54
2023/05/24 02:59:22;;;;;;;16.75;4.50;;;;;;;;;;4989337;28;20599;-57
2023/05/24 03:01:48;;;;;;;12.45;3.90;;;;;;;;;;4990432;28;20026;-56
2023/05/24 03:04:13;;;;;;;19.10;4.32;;;;;;;;;;4994908;28;20040;-58
2023/05/24 03:06:39;;;;;;;14.60;4.15;;;;;;;;;;4996954;28;20475;-56
2023/05/24 03:09:05;;;;;;;14.05;4.63;;;;;;;;;;4997258;28;20110;-55
2023/05/24 03:11:30;;;;;;;17.08;4.18;;;;;;;;;;4998223;28;20034;-57
2023/05/24 03:13:56;;;;;;;16.20;4.40;;;;;;;;;;4984733;28;20037;-56
2023/05/24 03:16:21;;;;;;;13.60;4.32;;;;;;;;;;4996464;28;20516;-56
2023/05/24 03:18:49;;;;;;;18.05;4.90;;;;;;;;;;4997796;28;20037;-56
2023/05/24 03:21:15;;;;;;;16.65;4.10;;;;;;;;;;4995203;28;20486;-57
2023/05/24 03:23:41;;;;;;;15.30;4.70;;;;;;;;;;4996262;28;20038;-55
2023/05/24 03:26:06;;;;;;;22.02;4.57;;;;;;;;;;4995590;28;20045;-56
2023/05/24 03:28:32;;;;;;;12.52;4.45;;;;;;;;;;4996566;28;20034;-57
2023/05/24 03:30:58;;;;;;;14.77;4.68;;;;;;;;;;4996610;28;20038;-53
2023/05/24 03:33:23;;;;;;;19.65;5.47;;;;;;;;;;4993296;28;20656;-53
2023/05/24 03:35:49;;;;;;;13.88;4.85;;;;;;;;;;4995620;28;20037;-50
2023/05/24 03:38:14;;;;;;;14.85;4.82;;;;;;;;;;4996404;28;20053;-57
2023/05/24 03:40:40;;;;;;;17.63;4.85;;;;;;;;;;4995086;28;20046;-61
2023/05/24 03:43:05;;;;;;;15.98;4.88;;;;;;;;;;4997740;28;20554;-61
2023/05/24 03:45:31;;;;;;;15.48;5.57;;;;;;;;;;4995483;28;20033;-61
2023/05/24 03:47:56;;;;;;;14.82;5.07;;;;;;;;;;4997092;28;20386;-61
2023/05/24 03:50:21;;;;;;;17.08;4.78;;;;;;;;;;4995712;28;20058;-62
2023/05/24 03:52:47;;;;;;;14.45;5.03;;;;;;;;;;4997038;28;20101;-61
2023/05/24 03:55:13;;;;;;;19.00;5.00;;;;;;;;;;4995701;28;20125;-62
2023/05/24 03:57:40;;;;;;;19.42;5.20;;;;;;;;;;4998370;28;20049;-62
2023/05/24 04:00:07;;;;;;;18.85;5.40;;;;;;;;;;4994826;28;20080;-61
2023/05/24 04:02:32;;;;;;;15.75;5.20;;;;;;;;;;4995209;28;20049;-61
2023/05/24 04:04:57;;;;;;;14.60;4.40;;;;;;;;;;4996661;28;20030;-61
2023/05/24 04:07:23;;;;;;;16.27;4.93;;;;;;;;;;4996180;28;20215;-61
2023/05/24 04:09:49;;;;;;;16.25;4.85;;;;;;;;;;4997839;28;20038;-61
2023/05/24 04:12:14;;;;;;;13.85;4.22;;;;;;;;;;4996535;28;20035;-61
2023/05/24 04:14:39;;;;;;;16.10;4.72;;;;;;;;;;4992069;28;20034;-62
2023/05/24 04:17:06;;;;;;;16.73;5.10;;;;;;;;;;4994440;28;20046;-61
2023/05/24 04:19:32;;;;;;;13.07;4.47;;;;;;;;;;4993341;28;20041;-61
2023/05/24 04:21:57;;;;;;;18.67;4.75;;;;;;;;;;4994090;28;20030;-61
2023/05/24 04:24:23;;;;;;;18.15;4.88;;;;;;;;;;4990997;28;20511;-61
2023/05/24 04:26:49;;;;;;;14.80;4.40;;;;;;;;;;4993316;28;20046;-60
2023/05/24 04:29:14;;;;;;;12.23;4.03;;;;;;;;;;4992452;28;20161;-60
2023/05/24 04:31:43;;;;;;;14.75;5.20;;;;;;;;;;4995135;28;20133;-64
2023/05/24 04:34:11;;;;;;;12.63;4.55;;;;;;;;;;4991274;28;20045;-62
2023/05/24 04:36:37;;;;;;;15.05;4.75;;;;;;;;;;4993299;28;20550;-61
2023/05/24 04:39:03;;;;;;;16.05;4.85;;;;;;;;;;4994074;28;20074;-60
2023/05/24 04:41:34;;;;;;;15.25;4.93;;;;;;;;;;4991550;28;20056;-60
2023/05/24 04:43:59;;;;;;;15.68;4.68;;;;;;;;;;4993755;28;20166;-61
2023/05/24 04:46:26;;;;;;;16.88;5.32;;;;;;;;;;4992148;28;20130;-60
2023/05/24 04:48:51;;;;;;;15.35;5.07;;;;;;;;;;4993688;28;20141;-60
2023/05/24 04:51:17;;;;;;;18.08;5.20;;;;;;;;;;4992528;28;20038;-60
2023/05/24 04:53:42;;;;;;;17.98;5.28;;;;;;;;;;4992277;28;20522;-60
2023/05/24 04:56:08;;;;;;;14.85;5.30;;;;;;;;;;4993505;28;20118;-60
2023/05/24 04:58:33;;;;;;;16.67;5.63;;;;;;;;;;4991584;28;20109;-60
2023/05/24 05:01:00;;;;;;;13.45;4.95;;;;;;;;;;4993604;28;20056;-61
2023/05/24 05:03:25;;;;;;;14.90;5.45;;;;;;;;;;4990693;28;20061;-60
2023/05/24 05:05:51;;;;;;;20.02;5.75;;;;;;;;;;4993059;28;20960;-60
2023/05/24 05:08:16;;;;;;;20.27;6.45;;;;;;;;;;4992287;28;20026;-60
2023/05/24 05:10:42;;;;;;;15.20;4.93;;;;;;;;;;4993661;28;20046;-60
2023/05/24 05:13:07;;;;;;;29.95;5.53;;;;;;;;;;4994179;28;20105;-60
2023/05/24 05:15:33;;;;;;;15.15;5.30;;;;;;;;;;4990938;28;20030;-60
2023/05/24 05:17:59;;;;;;;15.55;5.38;;;;;;;;;;4992913;28;20422;-60
2023/05/24 05:20:24;;;;;;;16.17;5.25;;;;;;;;;;4991983;28;20034;-60
2023/05/24 05:22:50;;;;;;;15.20;5.65;;;;;;;;;;4991605;28;20062;-60
2023/05/24 05:25:15;;;;;;;18.88;5.72;;;;;;;;;;4990783;28;20062;-60
2023/05/24 05:27:41;;;;;;;17.70;5.57;;;;;;;;;;4992753;28;20057;-60
2023/05/24 05:30:07;;;;;;;22.73;5.10;;;;;;;;;;4990088;28;20034;-61
2023/05/24 05:32:32;;;;;;;17.23;4.85;;;;;;;;;;4991917;28;20133;-60
2023/05/24 05:34:58;;;;;;;13.63;5.05;;;;;;;;;;4992826;28;20121;-60
2023/05/24 05:37:23;;;;;;;18.48;6.13;;;;;;;;;;4991036;28;20054;-60
2023/05/24 05:39:48;;;;;;;11.70;4.88;;;;;;;;;;4993383;28;20053;-60
2023/05/24 05:42:14;;;;;;;20.17;5.78;;;;;;;;;;4992882;28;20080;-61
2023/05/24 05:44:39;;;;;;;22.73;5.43;;;;;;;;;;4992726;28;20030;-60
2023/05/24 05:47:06;;;;;;;14.85;5.25;;;;;;;;;;4993664;28;20123;-60
2023/05/24 05:49:35;;;;;;;15.80;5.15;;;;;;;;;;4991282;28;20088;-60
2023/05/24 05:52:01;;;;;;;21.52;5.93;;;;;;;;;;4992423;28;20106;-60
2023/05/24 05:54:27;;;;;;;23.95;5.40;;;;;;;;;;4990803;28;20097;-61
2023/05/24 05:56:52;;;;;;;15.82;5.03;;;;;;;;;;4992075;28;20165;-61
2023/05/24 05:59:18;;;;;;;15.60;5.22;;;;;;;;;;4990644;28;20543;-61
2023/05/24 06:01:46;;;;;;;22.67;5.88;;;;;;;;;;4991511;28;20058;-61
2023/05/24 06:04:12;;;;;;;19.67;5.70;;;;;;;;;;4991868;28;20065;-61
2023/05/24 06:06:37;;;;;;;14.50;5.25;;;;;;;;;;4992654;28;20038;-61
2023/05/24 06:09:03;;;;;;;16.10;5.50;;;;;;;;;;4993227;28;20041;-61
2023/05/24 06:11:28;;;;;;;21.15;5.40;;;;;;;;;;4991070;28;20030;-61
2023/05/24 06:13:54;;;;;;;21.00;5.47;;;;;;;;;;4983590;28;20039;-61
2023/05/24 06:16:20;;;;;;;23.15;5.88;;;;;;;;;;4989786;28;20129;-62
2023/05/24 06:18:49;;;;;;;17.77;5.95;;;;;;;;;;4989685;28;20125;-62
2023/05/24 06:21:15;;;;;;;18.23;5.10;;;;;;;;;;4990804;28;20494;-59
2023/05/24 06:23:41;;;;;;;20.63;5.40;;;;;;;;;;4988832;28;20034;-60
2023/05/24 06:26:08;;;;;;;20.63;5.30;;;;;;;;;;4992141;28;20046;-59
2023/05/24 06:28:34;;;;;;;16.52;5.50;;;;;;;;;;4990519;28;20050;-60
2023/05/24 06:31:00;;;;;;;12.85;4.47;;;;;;;;;;4991578;28;20039;-59
2023/05/24 06:33:26;;;;;;;17.63;5.00;;;;;;;;;;4990543;28;20076;-59
2023/05/24 06:35:51;;;;;;;18.25;5.15;;;;;;;;;;4990092;28;20069;-60
2023/05/24 06:38:17;;;;;;;16.48;4.60;;;;;;;;;;4991829;28;20026;-59
2023/05/24 06:40:42;;;;;;;20.58;4.90;;;;;;;;;;4991766;28;20042;-60
2023/05/24 06:43:08;;;;;;;18.23;4.40;;;;;;;;;;4991290;28;20034;-60
2023/05/24 06:45:33;;;;;;;16.80;5.28;;;;;;;;;;4990088;28;20045;-60
2023/05/24 06:47:58;;;;;;;16.23;4.80;;;;;;;;;;4991869;28;20050;-60
2023/05/24 06:50:24;;;;;;;21.10;5.13;;;;;;;;;;4990582;28;20038;-60
2023/05/24 06:52:49;;;;;;;17.45;4.97;;;;;;;;;;4992442;28;20030;-60
2023/05/24 06:55:15;;;;;;;19.15;4.50;;;;;;;;;;4991400;28;20154;-60
2023/05/24 06:57:40;;;;;;;18.02;5.18;;;;;;;;;;4991209;28;20038;-60
2023/05/24 07:00:10;;;;;;;17.20;4.43;;;;;;;;;;4992545;28;20030;-60
2023/05/24 07:02:36;;;;;;;13.67;4.50;;;;;;;;;;4989314;28;20117;-60
2023/05/24 07:05:01;;;;;;;16.23;4.70;;;;;;;;;;4989389;28;20451;-60
2023/05/24 07:07:27;;;;;;;16.50;4.20;;;;;;;;;;4989494;28;20038;-60
2023/05/24 07:09:52;;;;;;;20.98;4.45;;;;;;;;;;4991449;28;20448;-59
2023/05/24 07:12:18;;;;;;;14.38;4.00;;;;;;;;;;4991035;28;20105;-59
2023/05/24 07:14:43;;;;;;;17.60;4.28;;;;;;;;;;4990615;28;20467;-60
2023/05/24 07:17:08;;;;;;;19.23;3.72;;;;;;;;;;4990913;28;20065;-60
2023/05/24 07:19:34;;;;;;;20.48;3.80;;;;;;;;;;4989932;28;20126;-60
2023/05/24 07:22:00;;;;;;;13.45;3.42;;;;;;;;;;4992248;28;20430;-61
2023/05/24 07:24:26;;;;;;;13.93;4.05;;;;;;;;;;4990752;28;20038;-61
2023/05/24 07:26:56;;;;;;;16.45;4.40;;;;;;;;;;4990554;28;20048;-60
2023/05/24 07:29:21;;;;;;;15.83;3.70;;;;;;;;;;4990773;28;20059;-61
2023/05/24 07:31:47;;;;;;;18.27;3.88;;;;;;;;;;4990025;28;20039;-60
2023/05/24 07:34:13;;;;;;;15.82;4.20;;;;;;;;;;4989571;28;20448;-60
2023/05/24 07:36:39;;;;;;;15.07;3.95;;;;;;;;;;4989837;28;20022;-60
2023/05/24 07:39:05;;;;;;;17.08;3.75;;;;;;;;;;4991409;28;20034;-60
2023/05/24 07:41:32;;;;;;;15.45;4.20;;;;;;;;;;4988659;28;20034;-60
2023/05/24 07:43:57;;;;;;;16.65;3.70;;;;;;;;;;4991191;28;20060;-61
2023/05/24 07:46:23;;;;;;;11.93;3.50;;;;;;;;;;4990634;28;20457;-61
2023/05/24 07:48:48;;;;;;;14.68;3.65;;;;;;;;;;4995332;28;20026;-59
2023/05/24 07:51:14;;;;;;;14.25;4.43;;;;;;;;;;4994213;28;20042;-62
2023/05/24 07:53:39;;;;;;;20.00;4.18;;;;;;;;;;4994235;28;20113;-61
2023/05/24 07:56:06;;;;;;;13.68;3.58;;;;;;;;;;4994257;28;20395;-61
2023/05/24 07:58:32;;;;;;;14.48;3.60;;;;;;;;;;4991798;28;20034;-61
2023/05/24 08:00:57;;;;;;;15.82;4.13;;;;;;;;;;4993559;28;20509;-61
2023/05/24 08:03:24;;;;;;;16.63;4.03;;;;;;;;;;4994260;28;20030;-61
2023/05/24 08:05:50;;;;;;;17.25;3.95;;;;;;;;;;4994598;28;20431;-60
2023/05/24 08:08:15;;;;;;;16.70;3.65;;;;;;;;;;4993689;28;20088;-61
2023/05/24 08:10:41;;;;;;;14.10;3.83;;;;;;;;;;4993130;28;20141;-61
2023/05/24 08:13:06;;;;;;;18.08;3.60;;;;;;;;;;4994680;28;20030;-60
2023/05/24 08:15:31;;;;;;;18.63;4.03;;;;;;;;;;4992300;28;20361;-60
2023/05/24 08:17:57;;;;;;;17.60;3.85;;;;;;;;;;4993943;28;20030;-60
2023/05/24 08:20:22;;;;;;;14.88;4.47;;;;;;;;;;4991971;28;20277;-60
2023/05/24 08:22:48;;;;;;;15.57;3.65;;;;;;;;;;4994356;28;20113;-60
2023/05/24 08:25:13;;;;;;;11.82;3.38;;;;;;;;;;4992683;28;20395;-60
2023/05/24 08:27:39;;;;;;;13.13;3.40;;;;;;;;;;4992497;28;20034;-61
2023/05/24 08:30:06;;;;;;;12.88;3.65;;;;;;;;;;4993901;28;20459;-60
2023/05/24 08:32:33;;;;;;;14.82;3.78;;;;;;;;;;4993951;28;20037;-61
2023/05/24 08:34:58;;;;;;;13.82;3.47;;;;;;;;;;4994895;28;20030;-60
2023/05/24 08:37:24;;;;;;;16.65;3.83;;;;;;;;;;4993949;28;20038;-60
2023/05/24 08:39:49;;;;;;;13.02;3.83;;;;;;;;;;4994536;28;20074;-60
2023/05/24 08:42:15;;;;;;;11.40;3.33;;;;;;;;;;4994480;28;20030;-60
2023/05/24 08:44:51;;;;;;;15.88;3.63;;;;;;;;;;4993338;28;20748;-60
2023/05/24 08:47:19;;;;;;;14.35;3.38;;;;;;;;;;4993125;28;20057;-60
2023/05/24 08:49:46;;;;;;;10.82;3.45;;;;;;;;;;4992739;28;20030;-60
2023/05/24 08:52:11;;;;;;;13.32;3.08;;;;;;;;;;4992464;28;20023;-60
2023/05/24 08:54:37;;;;;;;12.98;3.80;;;;;;;;;;4993702;28;20450;-60
2023/05/24 08:57:03;;;;;;;15.15;3.85;;;;;;;;;;4993201;28;20200;-61
2023/05/24 08:59:28;;;;;;;12.50;3.63;;;;;;;;;;4991088;28;20044;-61
2023/05/24 09:01:56;;;;;;;14.10;3.28;;;;;;;;;;4992414;28;20066;-61
2023/05/24 09:04:23;;;;;;;12.02;3.70;;;;;;;;;;4992557;28;20042;-61
2023/05/24 09:06:50;;;;;;;13.85;3.67;;;;;;;;;;4992761;28;20038;-61
2023/05/24 09:09:20;;;;;;;13.40;3.53;;;;;;;;;;4993679;28;20125;-61
2023/05/24 09:11:48;;;;;;;15.02;3.90;;;;;;;;;;4990986;28;20241;-61
2023/05/24 09:14:14;;;;;;;14.45;3.47;;;;;;;;;;4991254;28;20030;-60
2023/05/24 09:16:40;;;;;;;13.07;3.20;;;;;;;;;;4993215;28;20154;-61
2023/05/24 09:19:05;;;;;;;11.30;3.55;;;;;;;;;;4993049;28;20134;-60
2023/05/24 09:21:31;;;;;;;14.93;3.70;;;;;;;;;;4992040;28;20031;-60
2023/05/24 09:23:57;;;;;;;17.52;3.42;;;;;;;;;;4992526;28;20030;-60
2023/05/24 09:26:24;;;;;;;13.68;3.65;;;;;;;;;;4992588;28;20038;-61
2023/05/24 09:28:53;;;;;;;11.30;3.33;;;;;;;;;;4991176;28;20046;-61
2023/05/24 09:31:31;;;;;;;13.25;3.70;;;;;;;;;;4991714;28;20046;-60
2023/05/24 09:33:57;;;;;;;15.30;3.35;;;;;;;;;;4993004;28;20026;-61
2023/05/24 09:36:22;;;;;;;18.85;3.95;;;;;;;;;;4993770;28;20083;-61
2023/05/24 09:38:48;;;;;;;16.77;3.55;;;;;;;;;;4991989;28;20038;-61
2023/05/24 09:41:14;;;;;;;13.60;3.08;;;;;;;;;;4993763;28;20055;-60
2023/05/24 09:43:48;;;;;;;13.80;3.63;;;;;;;;;;4992477;28;20030;-61
2023/05/24 09:46:18;;;;;;;14.63;3.83;;;;;;;;;;4992344;28;20022;-62
2023/05/24 09:48:57;;;;;;;12.95;3.50;;;;;;;;;;4991271;28;20033;-61
2023/05/24 09:51:22;;;;;;;14.02;3.50;;;;;;;;;;4992296;28;20038;-60
2023/05/24 09:53:51;;;;;;;11.23;3.60;;;;;;;;;;4990457;28;20038;-61
2023/05/24 09:56:16;;;;;;;15.40;3.67;;;;;;;;;;4991460;28;20042;-61
2023/05/24 09:58:44;;;;;;;12.27;3.00;;;;;;;;;;4991093;28;20037;-60
2023/05/24 10:01:11;;;;;;;11.82;3.47;;;;;;;;;;4992127;28;20042;-60
2023/05/24 10:03:36;;;;;;;15.68;3.40;;;;;;;;;;4992289;28;20479;-61
2023/05/24 10:06:06;;;;;;;13.55;3.65;;;;;;;;;;4991118;28;20124;-61
2023/05/24 10:08:34;;;;;;;15.57;3.63;;;;;;;;;;4990824;28;20388;-61
2023/05/24 10:11:02;;;;;;;12.52;3.53;;;;;;;;;;4990852;28;20096;-61
2023/05/24 10:13:27;;;;;;;12.95;3.40;;;;;;;;;;4990296;28;20038;-61
2023/05/24 10:15:53;;;;;;;14.02;3.30;;;;;;;;;;4991359;28;20038;-60
2023/05/24 10:18:19;;;;;;;11.32;3.20;;;;;;;;;;4992404;28;20030;-60
2023/05/24 10:20:44;;;;;;;10.43;3.30;;;;;;;;;;4989394;28;20483;-60
2023/05/24 10:23:14;;;;;;;12.80;3.13;;;;;;;;;;4992347;28;20569;-60
2023/05/24 10:25:49;;;;;;;10.20;3.20;;;;;;;;;;4990800;28;20026;-61
2023/05/24 10:28:16;;;;;;;14.10;3.60;;;;;;;;;;4992931;28;20141;-61
2023/05/24 10:31:00;;;;;;;12.80;3.38;;;;;;;;;;4988862;28;20034;-61
2023/05/24 10:33:25;;;;;;;11.90;3.50;;;;;;;;;;4992621;28;20099;-61
2023/05/24 10:35:52;;;;;;;15.38;3.67;;;;;;;;;;4990529;28;20058;-60
2023/05/24 10:38:21;;;;;;;10.93;3.83;;;;;;;;;;4991779;28;20084;-61
2023/05/24 10:40:46;;;;;;;12.25;3.78;;;;;;;;;;4989119;28;20054;-61
2023/05/24 10:43:12;;;;;;;12.80;3.72;;;;;;;;;;4990123;28;20049;-60
2023/05/24 10:45:40;;;;;;;11.90;3.40;;;;;;;;;;4987665;28;20069;-61
2023/05/24 10:48:12;;;;;;;12.70;3.60;;;;;;;;;;4991356;28;20038;-61
2023/05/24 10:50:38;;;;;;;14.60;3.50;;;;;;;;;;4990757;28;20121;-61
2023/05/24 10:53:17;;;;;;;14.07;3.60;;;;;;;;;;4992493;28;20034;-61
2023/05/24 10:56:00;;;;;;;11.35;3.10;;;;;;;;;;4990326;28;20509;-61
2023/05/24 10:58:56;;;;;;;12.02;3.72;;;;;;;;;;4990512;28;20086;-60
2023/05/24 11:01:29;;;;;;;9.48;3.30;;;;;;;;;;4980701;28;20042;-61
2023/05/24 11:04:11;;;;;;;14.40;3.40;;;;;;;;;;4991223;28;20027;-61
2023/05/24 11:06:47;;;;;;;14.02;3.60;;;;;;;;;;4991687;28;20125;-61
2023/05/24 11:09:13;;;;;;;20.85;3.83;;;;;;;;;;4990642;28;20027;-61
2023/05/24 11:11:44;;;;;;;15.02;3.58;;;;;;;;;;4989325;28;20034;-60
2023/05/24 11:14:09;;;;;;;13.52;3.83;;;;;;;;;;4991658;28;20054;-61
2023/05/24 11:16:36;;;;;;;14.90;3.75;;;;;;;;;;4988659;28;20136;-61
2023/05/24 11:19:17;;;;;;;11.35;3.35;;;;;;;;;;4991334;28;20057;-61
2023/05/24 11:21:45;;;;;;;9.38;3.42;;;;;;;;;;4988088;28;20448;-61
2023/05/24 11:24:10;;;;;;;13.35;3.65;;;;;;;;;;4995330;28;20043;-61
2023/05/24 11:26:36;;;;;;;14.35;3.67;;;;;;;;;;4994022;28;20125;-61
2023/05/24 11:29:02;;;;;;;15.25;3.70;;;;;;;;;;4994901;28;20187;-61
2023/05/24 11:31:28;;;;;;;10.95;3.38;;;;;;;;;;4993037;28;20654;-61
2023/05/24 11:33:53;;;;;;;13.55;3.50;;;;;;;;;;4995117;28;20137;-61
2023/05/24 11:36:19;;;;;;;12.45;3.55;;;;;;;;;;4993441;28;20034;-61
2023/05/24 11:38:48;;;;;;;14.93;3.80;;;;;;;;;;4994992;28;20065;-61
2023/05/24 11:41:14;;;;;;;14.75;3.58;;;;;;;;;;4995463;28;20057;-61
2023/05/24 11:43:40;;;;;;;13.20;3.90;;;;;;;;;;4994355;28;20038;-61
2023/05/24 11:46:06;;;;;;;12.43;3.65;;;;;;;;;;4993815;28;20076;-61
2023/05/24 11:48:32;;;;;;;14.80;3.70;;;;;;;;;;4986878;28;20451;-61
2023/05/24 11:50:58;;;;;;;15.45;3.75;;;;;;;;;;4993831;28;20042;-61
2023/05/24 11:53:24;;;;;;;12.43;3.45;;;;;;;;;;4995708;28;20144;-60
2023/05/24 11:55:53;;;;;;;12.63;4.15;;;;;;;;;;4993399;28;20034;-61
2023/05/24 11:58:23;;;;;;;15.30;4.22;;;;;;;;;;4994019;28;20029;-61
2023/05/24 12:00:49;;;;;;;13.68;3.88;;;;;;;;;;4990717;28;20173;-61
2023/05/24 12:03:16;;;;;;;17.58;4.13;;;;;;;;;;4995518;28;20030;-61
2023/05/24 12:05:42;;;;;;;12.27;3.95;;;;;;;;;;4993765;28;20467;-62
2023/05/24 12:08:11;;;;;;;11.18;3.50;;;;;;;;;;4993846;28;20037;-61
2023/05/24 12:10:38;;;;;;;11.77;3.88;;;;;;;;;;4992771;28;20046;-61
2023/05/24 12:13:06;;;;;;;15.32;4.07;;;;;;;;;;4994106;28;20030;-61
2023/05/24 12:15:31;;;;;;;11.50;3.78;;;;;;;;;;4993390;28;20034;-61
2023/05/24 12:17:58;;;;;;;12.77;3.75;;;;;;;;;;4992421;28;20041;-61
2023/05/24 12:20:26;;;;;;;10.63;4.10;;;;;;;;;;4993328;28;20034;-61
2023/05/24 12:22:52;;;;;;;12.18;3.90;;;;;;;;;;4992515;28;20030;-61
2023/05/24 12:25:21;;;;;;;12.60;4.03;;;;;;;;;;4994410;28;20046;-61
2023/05/24 12:27:52;;;;;;;17.73;4.38;;;;;;;;;;4991272;28;20125;-61
2023/05/24 12:30:21;;;;;;;11.20;3.60;;;;;;;;;;4995102;28;20379;-61
2023/05/24 12:32:47;;;;;;;16.23;4.13;;;;;;;;;;4992334;28;20084;-61
2023/05/24 12:35:13;;;;;;;12.88;3.90;;;;;;;;;;4993172;28;20034;-61
2023/05/24 12:37:38;;;;;;;14.95;4.57;;;;;;;;;;4992827;28;20045;-61
2023/05/24 12:40:19;;;;;;;16.83;4.30;;;;;;;;;;4993667;28;20049;-62
2023/05/24 12:42:55;;;;;;;14.07;3.92;;;;;;;;;;4992462;28;20034;-61
2023/05/24 12:45:25;;;;;;;10.25;3.80;;;;;;;;;;4992752;28;20046;-61
2023/05/24 12:47:51;;;;;;;16.15;4.32;;;;;;;;;;4992518;28;20430;-62
2023/05/24 12:50:18;;;;;;;15.77;3.97;;;;;;;;;;4992772;28;20035;-61
2023/05/24 12:52:47;;;;;;;19.92;4.78;;;;;;;;;;4993886;28;20034;-61
2023/05/24 12:55:14;;;;;;;15.25;4.40;;;;;;;;;;4994447;28;20077;-60
2023/05/24 12:57:40;;;;;;;14.88;4.15;;;;;;;;;;4991515;28;20034;-61
2023/05/24 13:00:07;;;;;;;15.02;4.57;;;;;;;;;;4992755;28;20690;-61
2023/05/24 13:02:33;;;;;;;16.52;4.25;;;;;;;;;;4993074;28;20030;-61
2023/05/24 13:04:58;;;;;;;14.20;4.25;;;;;;;;;;4992112;28;20029;-61
2023/05/24 13:07:23;;;;;;;11.82;4.03;;;;;;;;;;4993465;28;20468;-61
2023/05/24 13:09:49;;;;;;;14.82;4.03;;;;;;;;;;4991957;28;20030;-61
2023/05/24 13:12:14;;;;;;;13.80;4.22;;;;;;;;;;4992554;28;20368;-61
2023/05/24 13:14:40;;;;;;;13.10;3.88;;;;;;;;;;4991285;28;20033;-62
2023/05/24 13:17:06;;;;;;;12.75;4.03;;;;;;;;;;4992668;28;20456;-61
2023/05/24 13:19:32;;;;;;;13.13;4.07;;;;;;;;;;4992175;28;20352;-61
2023/05/24 13:21:58;;;;;;;14.93;4.13;;;;;;;;;;4992576;28;20100;-61
2023/05/24 13:24:23;;;;;;;14.48;4.22;;;;;;;;;;4993811;28;20034;-61
2023/05/24 13:26:48;;;;;;;13.07;4.13;;;;;;;;;;4991622;28;20030;-61
2023/05/24 13:29:14;;;;;;;14.05;4.40;;;;;;;;;;4994257;28;20459;-61
2023/05/24 13:31:40;;;;;;;12.52;4.00;;;;;;;;;;4989334;28;20034;-61
2023/05/24 13:34:06;;;;;;;13.77;3.70;;;;;;;;;;4992997;28;20285;-61
2023/05/24 13:36:32;;;;;;;15.02;4.00;;;;;;;;;;4991354;28;20089;-61
2023/05/24 13:38:59;;;;;;;10.38;4.00;;;;;;;;;;4992331;28;20462;-60
2023/05/24 13:41:24;;;;;;;11.57;3.58;;;;;;;;;;4993793;28;20085;-61
2023/05/24 13:43:52;;;;;;;9.95;3.72;;;;;;;;;;4992785;28;20034;-61
2023/05/24 13:46:17;;;;;;;13.25;3.88;;;;;;;;;;4992486;28;20505;-61
2023/05/24 13:48:43;;;;;;;12.57;3.83;;;;;;;;;;4991649;28;20030;-61
2023/05/24 13:51:09;;;;;;;12.60;4.15;;;;;;;;;;4991222;28;20559;-61
2023/05/24 13:53:35;;;;;;;14.15;3.97;;;;;;;;;;4990591;28;20395;-61
2023/05/24 13:56:01;;;;;;;12.80;3.80;;;;;;;;;;4991227;28;20691;-62
2023/05/24 13:58:27;;;;;;;12.45;4.28;;;;;;;;;;4992698;28;20061;-61
2023/05/24 14:00:52;;;;;;;12.90;3.83;;;;;;;;;;4990753;28;20030;-61
2023/05/24 14:03:18;;;;;;;10.15;3.70;;;;;;;;;;4991606;28;20448;-61
2023/05/24 14:05:43;;;;;;;16.00;4.30;;;;;;;;;;4991841;28;20034;-61
2023/05/24 14:08:08;;;;;;;10.65;3.45;;;;;;;;;;4991002;28;20034;-61
2023/05/24 14:10:35;;;;;;;12.82;4.10;;;;;;;;;;4992049;28;20486;-61
2023/05/24 14:13:05;;;;;;;13.23;4.20;;;;;;;;;;4991168;28;20164;-59
2023/05/24 14:15:31;;;;;;;12.77;3.70;;;;;;;;;;4991677;28;20030;-60
2023/05/24 14:18:00;;;;;;;12.23;3.88;;;;;;;;;;4992070;28;20038;-62
2023/05/24 14:20:25;;;;;;;16.77;4.15;;;;;;;;;;4990730;28;20499;-62
2023/05/24 14:22:50;;;;;;;12.68;3.72;;;;;;;;;;4991406;28;20149;-62
2023/05/24 14:25:16;;;;;;;12.50;4.45;;;;;;;;;;4990405;28;20066;-61
2023/05/24 14:27:42;;;;;;;13.00;4.15;;;;;;;;;;4992567;28;20379;-61
2023/05/24 14:30:08;;;;;;;14.80;3.97;;;;;;;;;;4990513;28;20038;-60
2023/05/24 14:32:34;;;;;;;11.45;3.92;;;;;;;;;;4992323;28;20038;-61